createdAt,value
2023-04-18T00:00:42.162Z,27.08
2023-04-18T00:03:09.518Z,28.10
2023-04-18T00:05:36.679Z,26.95
2023-04-18T00:08:03.713Z,25.98
2023-04-18T00:10:30.398Z,26.20
2023-04-18T00:12:58.157Z,26.95
2023-04-18T00:15:25.723Z,27.95
2023-04-18T00:17:56.259Z,26.48
2023-04-18T00:20:26.648Z,27.85
2023-04-18T00:22:54.892Z,26.67
2023-04-18T00:25:21.680Z,27.20
2023-04-18T00:27:48.350Z,26.77
2023-04-18T00:30:15.299Z,26.85
2023-04-18T00:32:41.981Z,27.85
2023-04-18T00:35:08.888Z,25.08
2023-04-18T00:37:35.516Z,27.08
2023-04-18T00:40:02.125Z,27.35
2023-04-18T00:42:29.322Z,24.20
2023-04-18T00:44:56.195Z,25.38
2023-04-18T00:47:22.949Z,25.75
2023-04-18T00:49:49.871Z,26.60
2023-04-18T00:52:18.310Z,26.50
2023-04-18T00:54:45.231Z,27.88
2023-04-18T00:57:12.803Z,27.27
2023-04-18T00:59:39.727Z,26.35
2023-04-18T01:02:07.994Z,25.67
2023-04-18T01:04:34.886Z,27.52
2023-04-18T01:07:02.364Z,25.25
2023-04-18T01:09:29.492Z,26.77
2023-04-18T01:11:56.496Z,27.52
2023-04-18T01:14:23.855Z,24.73
2023-04-18T01:16:50.536Z,27.25
2023-04-18T01:19:19.485Z,28.67
2023-04-18T01:21:46.142Z,26.35
2023-04-18T01:24:17.647Z,28.13
2023-04-18T01:26:49.539Z,25.55
2023-04-18T01:29:16.377Z,26.17
2023-04-18T01:31:43.264Z,25.15
2023-04-18T01:34:10.043Z,26.52
2023-04-18T01:36:38.349Z,26.15
2023-04-18T01:39:05.242Z,26.63
2023-04-18T01:41:32.566Z,27.45
2023-04-18T01:43:59.815Z,27.67
2023-04-18T01:46:26.889Z,27.73
2023-04-18T01:48:53.912Z,28.65
2023-04-18T01:51:21.401Z,27.05
2023-04-18T01:53:48.231Z,28.08
2023-04-18T01:56:14.877Z,27.83
2023-04-18T01:58:41.658Z,27.88
2023-04-18T02:01:08.679Z,30.48
2023-04-18T02:03:35.656Z,29.00
2023-04-18T02:06:03.690Z,29.98
2023-04-18T02:08:32.828Z,29.48
2023-04-18T02:11:01.126Z,30.50
2023-04-18T02:13:28.128Z,30.05
2023-04-18T02:15:54.762Z,30.35
2023-04-18T02:18:24.586Z,29.08
2023-04-18T02:20:51.817Z,31.83
2023-04-18T02:23:18.819Z,31.73
2023-04-18T02:25:45.735Z,32.75
2023-04-18T02:28:12.418Z,31.33
2023-04-18T02:30:39.165Z,33.72
2023-04-18T02:33:06.282Z,36.88
2023-04-18T02:35:32.931Z,35.40
2023-04-18T02:37:59.734Z,33.22
2023-04-18T02:40:26.356Z,37.70
2023-04-18T02:42:52.952Z,37.42
2023-04-18T02:45:19.655Z,37.58
2023-04-18T02:47:54.421Z,37.72
2023-04-18T02:50:23.191Z,35.75
2023-04-18T02:52:50.735Z,31.27
2023-04-18T02:55:19.423Z,36.67
2023-04-18T02:57:46.408Z,37.25
2023-04-18T03:03:08.919Z,33.72
2023-04-18T03:05:40.355Z,35.00
2023-04-18T03:08:07.276Z,34.83
2023-04-18T03:10:35.918Z,34.78
2023-04-18T03:13:03.039Z,35.50
2023-04-18T03:15:33.244Z,35.35
2023-04-18T03:18:00.791Z,39.88
2023-04-18T03:20:31.195Z,36.65
2023-04-18T03:22:57.776Z,36.75
2023-04-18T03:25:26.436Z,30.83
2023-04-18T03:27:53.492Z,31.85
2023-04-18T03:30:22.264Z,36.85
2023-04-18T03:32:55.907Z,35.78
2023-04-18T03:35:22.942Z,38.75
2023-04-18T03:37:50.372Z,40.90
2023-04-18T03:40:30.543Z,37.92
2023-04-18T03:43:02.774Z,40.42
2023-04-18T03:45:29.885Z,39.85
2023-04-18T03:47:56.599Z,44.53
2023-04-18T03:50:25.576Z,47.17
2023-04-18T03:52:54.771Z,51.35
2023-04-18T03:55:21.689Z,48.50
2023-04-18T03:57:48.557Z,50.78
2023-04-18T04:02:57.635Z,54.72
2023-04-18T04:05:24.486Z,50.53
2023-04-18T04:07:51.227Z,49.63
2023-04-18T04:10:18.246Z,55.00
2023-04-18T04:12:45.125Z,56.63
2023-04-18T04:15:12.208Z,50.83
2023-04-18T04:17:45.202Z,47.63
2023-04-18T04:20:12.651Z,54.25
2023-04-18T04:22:39.589Z,54.97
2023-04-18T04:25:07.515Z,54.30
2023-04-18T04:27:38.882Z,55.42
2023-04-18T04:30:08.652Z,55.85
2023-04-18T04:32:35.753Z,56.28
2023-04-18T04:35:02.646Z,57.40
2023-04-18T04:37:29.393Z,61.95
2023-04-18T04:40:19.522Z,53.35
2023-04-18T04:42:54.079Z,62.77
2023-04-18T04:45:26.851Z,59.63
2023-04-18T04:47:53.482Z,59.95
2023-04-18T04:50:21.362Z,58.47
2023-04-18T04:52:48.328Z,65.30
2023-04-18T04:55:15.773Z,57.05
2023-04-18T04:57:44.730Z,60.33
2023-04-18T05:00:37.100Z,56.28
2023-04-18T05:03:03.857Z,56.72
2023-04-18T05:05:30.659Z,50.72
2023-04-18T05:07:57.277Z,52.03
2023-04-18T05:10:23.920Z,53.72
2023-04-18T05:12:50.559Z,59.35
2023-04-18T05:15:18.245Z,60.50
2023-04-18T05:17:45.036Z,51.13
2023-04-18T05:20:12.051Z,52.45
2023-04-18T05:22:38.658Z,55.20
2023-04-18T05:25:05.824Z,47.55
2023-04-18T05:27:32.489Z,55.55
2023-04-18T05:29:59.355Z,54.05
2023-04-18T05:32:25.999Z,49.55
2023-04-18T05:34:52.680Z,48.22
2023-04-18T05:37:19.350Z,51.83
2023-04-18T05:39:46.027Z,60.85
2023-04-18T05:42:12.695Z,56.10
2023-04-18T05:44:39.650Z,58.15
2023-04-18T05:47:06.620Z,57.75
2023-04-18T05:49:33.466Z,55.42
2023-04-18T05:52:00.741Z,57.78
2023-04-18T05:54:27.463Z,60.15
2023-04-18T05:56:55.102Z,64.35
2023-04-18T05:59:21.770Z,59.08
2023-04-18T06:01:49.241Z,38.90
2023-04-18T06:04:16.693Z,55.75
2023-04-18T06:06:43.813Z,63.88
2023-04-18T06:09:10.513Z,63.17
2023-04-18T06:11:37.124Z,61.38
2023-04-18T06:14:03.859Z,70.85
2023-04-18T06:16:30.779Z,62.38
2023-04-18T06:19:00.860Z,60.58
2023-04-18T06:21:27.985Z,66.03
2023-04-18T06:23:54.731Z,67.30
2023-04-18T06:26:21.673Z,61.17
2023-04-18T06:28:48.333Z,72.45
2023-04-18T06:31:15.010Z,67.13
2023-04-18T06:33:42.155Z,71.68
2023-04-18T06:36:09.079Z,65.35
2023-04-18T06:38:35.820Z,68.38
2023-04-18T06:41:02.504Z,64.35
2023-04-18T06:43:29.158Z,65.80
2023-04-18T06:45:56.618Z,61.25
2023-04-18T06:48:23.563Z,59.28
2023-04-18T06:50:50.454Z,61.28
2023-04-18T06:53:17.069Z,61.78
2023-04-18T06:55:43.869Z,65.70
2023-04-18T06:58:13.485Z,65.65
2023-04-18T07:00:40.109Z,60.88
2023-04-18T07:03:11.265Z,52.83
2023-04-18T07:05:39.229Z,58.30
2023-04-18T07:08:06.116Z,67.30
2023-04-18T07:10:32.949Z,60.40
2023-04-18T07:12:59.756Z,68.65
2023-04-18T07:15:26.475Z,67.47
2023-04-18T07:17:53.338Z,65.28
2023-04-18T07:20:20.360Z,59.45
2023-04-18T07:22:49.056Z,59.42
2023-04-18T07:25:15.776Z,61.60
2023-04-18T07:27:42.552Z,66.15
2023-04-18T07:30:10.139Z,56.72
2023-04-18T07:32:36.760Z,55.67
2023-04-18T07:35:04.040Z,56.72
2023-04-18T07:37:31.136Z,54.95
2023-04-18T07:39:58.568Z,63.13
2023-04-18T07:42:25.198Z,47.38
2023-04-18T07:44:58.546Z,57.47
2023-04-18T07:47:28.306Z,58.75
2023-04-18T07:49:56.690Z,57.65
2023-04-18T07:52:23.394Z,51.28
2023-04-18T07:54:50.138Z,56.47
2023-04-18T07:57:17.137Z,56.58
2023-04-18T07:59:43.766Z,59.72
2023-04-18T08:02:10.495Z,66.90
2023-04-18T08:04:37.439Z,59.50
2023-04-18T08:07:04.137Z,61.42
2023-04-18T08:09:30.890Z,64.07
2023-04-18T08:11:59.322Z,59.92
2023-04-18T08:14:25.922Z,58.17
2023-04-18T08:16:52.641Z,53.90
2023-04-18T08:19:19.301Z,57.45
2023-04-18T08:21:45.989Z,57.78
2023-04-18T08:24:12.606Z,54.97
2023-04-18T08:26:39.276Z,44.08
2023-04-18T08:29:06.201Z,44.00
2023-04-18T08:31:32.882Z,54.35
2023-04-18T08:34:00.089Z,55.45
2023-04-18T08:36:27.895Z,56.63
2023-04-18T08:38:54.558Z,51.65
2023-04-18T08:41:23.226Z,57.70
2023-04-18T08:43:50.472Z,60.92
2023-04-18T08:46:17.365Z,56.53
2023-04-18T08:48:44.533Z,54.58
2023-04-18T08:51:11.263Z,56.25
2023-04-18T08:53:39.194Z,51.25
2023-04-18T08:56:10.264Z,55.60
2023-04-18T08:58:37.101Z,57.90
2023-04-18T09:01:03.860Z,52.72
2023-04-18T09:03:39.519Z,53.28
2023-04-18T09:06:15.962Z,59.88
2023-04-18T09:08:43.929Z,55.83
2023-04-18T09:11:31.537Z,51.58
2023-04-18T09:14:02.209Z,47.92
2023-04-18T09:16:44.384Z,50.75
2023-04-18T09:19:13.803Z,49.58
2023-04-18T09:21:44.231Z,49.90
2023-04-18T09:24:32.709Z,47.03
2023-04-18T09:27:01.086Z,48.53
2023-04-18T09:29:46.772Z,51.33
2023-04-18T09:32:29.267Z,51.75
2023-04-18T09:35:04.026Z,51.50
2023-04-18T09:37:31.481Z,44.60
2023-04-18T09:39:58.390Z,49.70
2023-04-18T09:42:28.898Z,48.45
2023-04-18T09:45:07.563Z,48.05
2023-04-18T09:47:36.240Z,44.70
2023-04-18T09:50:08.428Z,44.95
2023-04-18T09:52:37.957Z,43.03
2023-04-18T09:55:07.407Z,42.42
2023-04-18T09:57:35.906Z,41.08
2023-04-18T10:00:24.667Z,41.28
2023-04-18T10:03:04.955Z,42.40
2023-04-18T10:05:34.018Z,42.55
2023-04-18T10:08:00.945Z,49.55
2023-04-18T10:10:27.569Z,44.53
2023-04-18T10:12:56.508Z,39.50
2023-04-18T10:15:26.286Z,43.80
2023-04-18T10:18:05.657Z,41.53
2023-04-18T10:20:34.498Z,44.58
2023-04-18T10:23:37.249Z,44.30
2023-04-18T10:26:05.819Z,42.92
2023-04-18T10:28:54.950Z,41.95
2023-04-18T10:31:23.672Z,42.08
2023-04-18T10:36:28.456Z,40.90
2023-04-18T10:39:00.584Z,41.58
2023-04-18T10:41:29.827Z,41.50
2023-04-18T10:44:24.718Z,40.40
2023-04-18T10:46:51.479Z,42.93
2023-04-18T10:49:27.010Z,40.28
2023-04-18T10:51:58.487Z,46.30
2023-04-18T10:54:52.029Z,41.03
2023-04-18T10:57:18.757Z,44.30
2023-04-18T10:59:49.847Z,39.95
2023-04-18T11:02:32.208Z,40.13
2023-04-18T11:05:00.608Z,40.60
2023-04-18T11:07:33.912Z,40.00
2023-04-18T11:10:01.392Z,41.47
2023-04-18T11:12:32.869Z,44.45
2023-04-18T11:15:02.548Z,46.05
2023-04-18T11:17:35.577Z,47.45
2023-04-18T11:20:16.980Z,41.97
2023-04-18T11:22:48.563Z,45.97
2023-04-18T11:25:16.313Z,41.90
2023-04-18T11:27:46.134Z,43.08
2023-04-18T11:30:13.946Z,43.97
2023-04-18T11:32:41.034Z,48.13
2023-04-18T11:35:12.815Z,47.58
2023-04-18T11:37:40.921Z,45.97
2023-04-18T11:40:11.522Z,49.38
2023-04-18T11:42:39.678Z,46.17
2023-04-18T11:45:10.053Z,47.88
2023-04-18T11:47:36.707Z,50.35
2023-04-18T11:50:06.577Z,46.45
2023-04-18T11:52:35.363Z,44.92
2023-04-18T11:55:21.703Z,49.72
2023-04-18T11:57:56.239Z,48.53
2023-04-18T12:00:37.433Z,50.88
2023-04-18T12:03:15.450Z,47.80
2023-04-18T12:05:42.728Z,46.47
2023-04-18T12:08:11.410Z,45.78
2023-04-18T12:10:46.033Z,47.20
2023-04-18T12:13:12.891Z,49.45
2023-04-18T12:15:43.299Z,52.53
2023-04-18T12:18:12.029Z,46.90
2023-04-18T12:20:39.888Z,47.67
2023-04-18T12:23:07.822Z,46.13
2023-04-18T12:25:34.964Z,46.83
2023-04-18T12:28:15.698Z,46.28
2023-04-18T12:30:42.589Z,45.75
2023-04-18T12:33:09.487Z,48.03
2023-04-18T12:35:36.590Z,48.40
2023-04-18T12:38:04.552Z,47.10
2023-04-18T12:40:31.271Z,46.10
2023-04-18T12:42:58.016Z,48.20
2023-04-18T12:45:25.056Z,45.30
2023-04-18T12:47:52.920Z,49.97
2023-04-18T12:50:25.288Z,49.80
2023-04-18T12:52:53.535Z,47.08
2023-04-18T12:55:21.148Z,48.03
2023-04-18T12:57:47.864Z,49.00
2023-04-18T13:00:14.767Z,48.45
2023-04-18T13:02:44.041Z,51.30
2023-04-18T13:05:13.104Z,51.80
2023-04-18T13:07:42.497Z,48.55
2023-04-18T13:10:12.088Z,50.10
2023-04-18T13:12:40.561Z,48.70
2023-04-18T13:15:08.448Z,49.30
2023-04-18T13:17:38.599Z,50.63
2023-04-18T13:20:10.483Z,51.10
2023-04-18T13:22:38.017Z,49.10
2023-04-18T13:25:05.650Z,51.00
2023-04-18T13:27:32.345Z,50.65
2023-04-18T13:30:05.061Z,46.95
2023-04-18T13:32:31.817Z,51.45
2023-04-18T13:34:58.588Z,49.05
2023-04-18T13:37:26.611Z,44.35
2023-04-18T13:39:53.203Z,47.33
2023-04-18T13:42:20.297Z,48.70
2023-04-18T13:44:47.635Z,47.05
2023-04-18T13:47:14.510Z,44.90
2023-04-18T13:49:41.202Z,42.30
2023-04-18T13:52:08.002Z,43.80
2023-04-18T13:54:34.924Z,42.00
2023-04-18T13:57:06.832Z,44.75
2023-04-18T13:59:33.653Z,44.08
2023-04-18T14:02:00.502Z,41.60
2023-04-18T14:04:27.408Z,43.05
2023-04-18T14:06:55.430Z,45.72
2023-04-18T14:09:22.194Z,45.97
2023-04-18T14:11:48.830Z,44.70
2023-04-18T14:14:15.575Z,43.20
2023-04-18T14:16:42.161Z,44.65
2023-04-18T14:19:08.848Z,46.33
2023-04-18T14:21:35.818Z,46.83
2023-04-18T14:24:02.435Z,43.75
2023-04-18T14:26:29.281Z,45.20
2023-04-18T14:28:56.499Z,44.08
2023-04-18T14:31:23.381Z,41.63
2023-04-18T14:33:50.141Z,44.35
2023-04-18T14:36:17.179Z,43.95
2023-04-18T14:38:48.388Z,44.63
2023-04-18T14:41:15.251Z,45.10
2023-04-18T14:43:41.849Z,45.05
2023-04-18T14:46:13.175Z,45.70
2023-04-18T14:48:39.921Z,45.28
2023-04-18T14:51:07.065Z,46.33
2023-04-18T14:53:34.013Z,45.60
2023-04-18T14:56:00.658Z,45.28
2023-04-18T14:58:27.316Z,43.60
2023-04-18T15:00:53.978Z,44.97
2023-04-18T15:03:20.800Z,44.95
2023-04-18T15:05:48.852Z,45.83
2023-04-18T15:08:16.044Z,44.42
2023-04-18T15:10:42.784Z,44.70
2023-04-18T15:13:10.867Z,45.25
2023-04-18T15:15:39.481Z,45.08
2023-04-18T15:18:07.763Z,46.63
2023-04-18T15:20:36.004Z,46.67
2023-04-18T15:23:03.032Z,47.17
2023-04-18T15:25:30.430Z,47.55
2023-04-18T15:27:58.208Z,47.22
2023-04-18T15:30:25.417Z,49.05
2023-04-18T15:32:53.764Z,45.60
2023-04-18T15:35:20.699Z,46.42
2023-04-18T15:37:47.577Z,47.63
2023-04-18T15:40:16.302Z,46.35
2023-04-18T15:42:43.579Z,46.35
2023-04-18T15:45:10.854Z,44.97
2023-04-18T15:47:38.819Z,44.75
2023-04-18T15:50:06.896Z,43.25
2023-04-18T15:52:33.742Z,43.35
2023-04-18T15:55:00.841Z,43.97
2023-04-18T15:57:29.558Z,43.38
2023-04-18T15:59:56.610Z,41.20
2023-04-18T16:02:23.334Z,42.70
2023-04-18T16:04:50.448Z,44.97
2023-04-18T16:07:17.120Z,44.35
2023-04-18T16:09:43.774Z,42.65
2023-04-18T16:12:10.442Z,45.10
2023-04-18T16:14:37.503Z,48.08
2023-04-18T16:17:04.151Z,46.83
2023-04-18T16:19:33.913Z,44.40
2023-04-18T16:22:02.769Z,46.63
2023-04-18T16:24:30.079Z,46.40
2023-04-18T16:26:56.773Z,49.15
2023-04-18T16:29:23.710Z,47.25
2023-04-18T16:31:51.617Z,47.53
2023-04-18T16:34:18.515Z,46.80
2023-04-18T16:36:45.174Z,48.45
2023-04-18T16:39:11.956Z,46.28
2023-04-18T16:41:38.652Z,46.20
2023-04-18T16:44:05.365Z,44.78
2023-04-18T16:46:32.333Z,46.72
2023-04-18T16:48:59.373Z,49.58
2023-04-18T16:51:26.782Z,45.78
2023-04-18T16:53:53.433Z,45.13
2023-04-18T16:56:20.213Z,48.17
2023-04-18T16:58:46.872Z,48.40
2023-04-18T17:01:13.588Z,45.60
2023-04-18T17:03:40.833Z,47.88
2023-04-18T17:06:07.585Z,47.03
2023-04-18T17:08:34.262Z,48.33
2023-04-18T17:11:02.161Z,48.13
2023-04-18T17:13:31.269Z,50.80
2023-04-18T17:15:58.153Z,49.60
2023-04-18T17:18:25.542Z,52.08
2023-04-18T17:20:52.353Z,50.83
2023-04-18T17:23:19.178Z,50.05
2023-04-18T17:25:46.388Z,50.88
2023-04-18T17:28:13.828Z,48.58
2023-04-18T17:30:41.808Z,46.55
2023-04-18T17:33:09.646Z,47.80
2023-04-18T17:35:36.289Z,47.65
2023-04-18T17:38:03.277Z,46.22
2023-04-18T17:40:29.937Z,46.80
2023-04-18T17:42:56.635Z,45.33
2023-04-18T17:45:23.913Z,46.78
2023-04-18T17:47:50.798Z,47.03
2023-04-18T17:50:17.709Z,46.25
2023-04-18T17:52:46.194Z,46.13
2023-04-18T17:55:12.962Z,46.22
2023-04-18T17:57:41.674Z,48.13
2023-04-18T18:00:11.655Z,47.42
2023-04-18T18:02:42.620Z,46.58
2023-04-18T18:05:13.769Z,46.67
2023-04-18T18:07:43.031Z,44.85
2023-04-18T18:10:10.691Z,44.72
2023-04-18T18:12:38.076Z,45.20
2023-04-18T18:15:05.517Z,47.70
2023-04-18T18:17:32.190Z,40.15
2023-04-18T18:19:59.057Z,41.13
2023-04-18T18:22:26.162Z,40.33
2023-04-18T18:24:53.057Z,39.83
2023-04-18T18:27:22.980Z,40.17
2023-04-18T18:29:50.297Z,40.55
2023-04-18T18:32:17.039Z,40.60
2023-04-18T18:34:43.682Z,40.58
2023-04-18T18:37:10.306Z,40.47
2023-04-18T18:39:37.306Z,37.13
2023-04-18T18:42:03.968Z,39.50
2023-04-18T18:44:30.659Z,40.05
2023-04-18T18:46:58.644Z,42.53
2023-04-18T18:49:26.394Z,36.67
2023-04-18T18:51:53.355Z,36.35
2023-04-18T18:54:20.175Z,36.58
2023-04-18T18:56:46.938Z,37.13
2023-04-18T18:59:13.880Z,37.33
2023-04-18T19:01:40.968Z,35.95
2023-04-18T19:04:07.991Z,36.00
2023-04-18T19:06:34.874Z,36.00
2023-04-18T19:09:01.844Z,34.83
2023-04-18T19:11:29.104Z,35.03
2023-04-18T19:13:55.734Z,33.65
2023-04-18T19:16:22.636Z,33.58
2023-04-18T19:18:50.377Z,32.75
2023-04-18T19:21:17.465Z,34.38
2023-04-18T19:23:44.217Z,34.45
2023-04-18T19:26:11.042Z,33.78
2023-04-18T19:28:37.966Z,33.50
2023-04-18T19:31:04.957Z,33.97
2023-04-18T19:33:31.697Z,35.60
2023-04-18T19:35:58.639Z,36.10
2023-04-18T19:38:25.602Z,35.90
2023-04-18T19:40:52.310Z,33.70
2023-04-18T19:43:19.027Z,36.05
2023-04-18T19:45:45.843Z,35.42
2023-04-18T19:48:12.466Z,34.08
2023-04-18T19:50:40.591Z,34.92
2023-04-18T19:53:07.443Z,34.45
2023-04-18T19:55:34.200Z,37.42
2023-04-18T19:58:00.873Z,35.83
2023-04-18T20:00:28.283Z,36.97
2023-04-18T20:02:55.126Z,42.47
2023-04-18T20:05:22.200Z,35.33
2023-04-18T20:07:48.990Z,35.47
2023-04-18T20:10:15.827Z,36.13
2023-04-18T20:12:42.456Z,36.63
2023-04-18T20:15:09.548Z,37.35
2023-04-18T20:17:36.648Z,37.42
2023-04-18T20:20:04.396Z,36.60
2023-04-18T20:22:32.167Z,36.95
2023-04-18T20:24:58.787Z,35.03
2023-04-18T20:27:25.444Z,39.17
2023-04-18T20:29:52.478Z,36.63
2023-04-18T20:32:19.205Z,36.70
2023-04-18T20:34:46.596Z,36.45
2023-04-18T20:37:18.608Z,39.38
2023-04-18T20:39:45.666Z,37.65
2023-04-18T20:42:14.477Z,39.58
2023-04-18T20:44:46.547Z,39.28
2023-04-18T20:47:15.272Z,36.58
2023-04-18T20:49:42.695Z,39.70
2023-04-18T20:52:14.133Z,38.38
2023-04-18T20:54:41.716Z,39.50
2023-04-18T20:57:08.456Z,42.75
2023-04-18T20:59:35.194Z,41.08
2023-04-18T21:02:02.078Z,39.10
2023-04-18T21:04:29.612Z,38.65
2023-04-18T21:06:56.615Z,43.08
2023-04-18T21:09:23.236Z,38.33
2023-04-18T21:11:50.040Z,43.25
2023-04-18T21:14:17.129Z,48.33
2023-04-18T21:16:44.415Z,43.30
2023-04-18T21:19:11.374Z,39.92
2023-04-18T21:21:37.969Z,39.88
2023-04-18T21:24:05.541Z,37.88
2023-04-18T21:26:32.191Z,38.17
2023-04-18T21:29:01.582Z,36.80
2023-04-18T21:31:31.912Z,36.17
2023-04-18T21:34:00.901Z,41.70
2023-04-18T21:36:28.645Z,34.88
2023-04-18T21:38:56.261Z,34.97
2023-04-18T21:41:23.649Z,32.83
2023-04-18T21:43:51.235Z,32.38
2023-04-18T21:46:18.518Z,34.63
2023-04-18T21:48:46.886Z,31.90
2023-04-18T21:51:16.505Z,32.78
2023-04-18T21:53:43.355Z,34.03
2023-04-18T21:56:10.815Z,31.40
2023-04-18T21:58:37.725Z,31.75
2023-04-18T22:01:04.468Z,28.27
2023-04-18T22:03:33.282Z,29.60
2023-04-18T22:06:01.153Z,31.35
2023-04-18T22:08:28.158Z,32.10
2023-04-18T22:10:57.452Z,29.65
2023-04-18T22:13:25.539Z,29.38
2023-04-18T22:15:52.293Z,30.25
2023-04-18T22:18:19.181Z,28.30
2023-04-18T22:20:49.184Z,27.73
2023-04-18T22:23:15.829Z,26.80
2023-04-18T22:25:42.424Z,27.42
2023-04-18T22:28:09.025Z,28.25
2023-04-18T22:30:35.831Z,27.60
2023-04-18T22:33:03.006Z,27.77
2023-04-18T22:35:29.731Z,25.70
2023-04-18T22:37:56.597Z,26.95
2023-04-18T22:40:23.298Z,26.25
2023-04-18T22:42:51.743Z,26.45
2023-04-18T22:45:19.286Z,25.13
2023-04-18T22:47:46.578Z,25.92
2023-04-18T22:50:14.481Z,26.95
2023-04-18T22:52:41.292Z,25.70
2023-04-18T22:55:08.979Z,25.98
2023-04-18T22:57:35.938Z,26.85
2023-04-18T23:00:04.637Z,25.58
2023-04-18T23:02:31.395Z,25.98
2023-04-18T23:04:59.667Z,26.80
2023-04-18T23:07:26.480Z,27.08
2023-04-18T23:09:53.267Z,25.20
2023-04-18T23:12:19.917Z,26.50
2023-04-18T23:14:47.341Z,26.25
2023-04-18T23:17:13.976Z,27.65
2023-04-18T23:19:40.776Z,26.98
2023-04-18T23:22:07.367Z,26.85
2023-04-18T23:24:34.090Z,27.60
2023-04-18T23:27:01.441Z,27.40
2023-04-18T23:29:28.044Z,26.67
2023-04-18T23:31:54.711Z,26.98
2023-04-18T23:34:21.355Z,26.40
2023-04-18T23:36:47.997Z,26.90
2023-04-18T23:39:14.631Z,28.27
2023-04-18T23:41:41.308Z,26.80
2023-04-18T23:44:07.903Z,25.77
2023-04-18T23:46:36.363Z,26.27
2023-04-18T23:49:03.549Z,25.55
2023-04-18T23:51:30.909Z,26.77
2023-04-18T23:53:57.582Z,25.80
2023-04-18T23:56:24.238Z,26.40
2023-04-18T23:58:50.900Z,26.67
